sensor_id;sensor_type;location;lat;lon;timestamp;temperature;humidity
32536;DHT22;18974;50.838;4.636;2023-11-19T04:27:24;11.30;99.90
32536;DHT22;18974;50.838;4.636;2023-11-19T04:29:50;11.40;99.90
32536;DHT22;18974;50.838;4.636;2023-11-19T04:32:16;11.50;99.90
32536;DHT22;18974;50.838;4.636;2023-11-19T04:34:41;11.70;99.90
32536;DHT22;18974;50.838;4.636;2023-11-19T04:37:10;11.80;99.90
32536;DHT22;18974;50.838;4.636;2023-11-19T04:39:36;11.90;99.90
32536;DHT22;18974;50.838;4.636;2023-11-19T04:42:02;12.00;99.90
32536;DHT22;18974;50.838;4.636;2023-11-19T04:44:29;12.10;99.90
32536;DHT22;18974;50.838;4.636;2023-11-19T04:46:55;12.10;99.90
32536;DHT22;18974;50.838;4.636;2023-11-19T04:49:21;12.20;99.90
32536;DHT22;18974;50.838;4.636;2023-11-19T04:51:47;12.30;99.90
32536;DHT22;18974;50.838;4.636;2023-11-19T04:54:13;12.30;99.90
32536;DHT22;18974;50.838;4.636;2023-11-19T04:56:39;12.20;99.90
32536;DHT22;18974;50.838;4.636;2023-11-19T04:59:06;12.20;99.90
32536;DHT22;18974;50.838;4.636;2023-11-19T05:01:32;12.20;99.90
32536;DHT22;18974;50.838;4.636;2023-11-19T05:03:58;12.30;99.90
32536;DHT22;18974;50.838;4.636;2023-11-19T05:06:30;12.30;99.90
32536;DHT22;18974;50.838;4.636;2023-11-19T05:08:58;12.50;99.90
32536;DHT22;18974;50.838;4.636;2023-11-19T05:11:24;12.50;99.90
32536;DHT22;18974;50.838;4.636;2023-11-19T05:13:49;12.50;99.90
32536;DHT22;18974;50.838;4.636;2023-11-19T05:16:16;12.50;99.90
32536;DHT22;18974;50.838;4.636;2023-11-19T05:18:43;12.60;99.90
32536;DHT22;18974;50.838;4.636;2023-11-19T05:21:08;12.70;99.90
32536;DHT22;18974;50.838;4.636;2023-11-19T05:23:34;12.70;99.90
32536;DHT22;18974;50.838;4.636;2023-11-19T05:26:03;12.60;99.90
32536;DHT22;18974;50.838;4.636;2023-11-19T05:28:29;12.60;99.90
32536;DHT22;18974;50.838;4.636;2023-11-19T05:30:54;12.60;99.90
32536;DHT22;18974;50.838;4.636;2023-11-19T05:33:20;12.50;99.90
32536;DHT22;18974;50.838;4.636;2023-11-19T05:35:46;12.50;99.90
32536;DHT22;18974;50.838;4.636;2023-11-19T05:38:12;12.50;99.90
32536;DHT22;18974;50.838;4.636;2023-11-19T05:40:38;12.30;99.90
32536;DHT22;18974;50.838;4.636;2023-11-19T05:43:04;12.30;99.90
32536;DHT22;18974;50.838;4.636;2023-11-19T05:45:31;12.30;99.90
32536;DHT22;18974;50.838;4.636;2023-11-19T05:47:57;12.30;99.90
32536;DHT22;18974;50.838;4.636;2023-11-19T05:50:23;12.30;99.90
32536;DHT22;18974;50.838;4.636;2023-11-19T05:52:49;12.30;99.90
32536;DHT22;18974;50.838;4.636;2023-11-19T05:55:15;12.40;99.90
32536;DHT22;18974;50.838;4.636;2023-11-19T05:57:41;12.40;99.90
32536;DHT22;18974;50.838;4.636;2023-11-19T06:00:07;12.40;99.90
32536;DHT22;18974;50.838;4.636;2023-11-19T06:02:34;12.40;99.90
32536;DHT22;18974;50.838;4.636;2023-11-19T06:05:00;12.40;99.90
32536;DHT22;18974;50.838;4.636;2023-11-19T06:07:27;12.40;99.90
32536;DHT22;18974;50.838;4.636;2023-11-19T06:09:53;12.50;99.90
32536;DHT22;18974;50.838;4.636;2023-11-19T06:12:19;12.40;99.90
32536;DHT22;18974;50.838;4.636;2023-11-19T06:14:44;12.30;99.90
32536;DHT22;18974;50.838;4.636;2023-11-19T06:17:10;12.30;99.90
32536;DHT22;18974;50.838;4.636;2023-11-19T06:19:37;12.30;99.90
32536;DHT22;18974;50.838;4.636;2023-11-19T06:22:03;12.30;99.90
32536;DHT22;18974;50.838;4.636;2023-11-19T06:24:29;12.30;99.90
32536;DHT22;18974;50.838;4.636;2023-11-19T06:26:55;12.30;99.90
32536;DHT22;18974;50.838;4.636;2023-11-19T06:29:21;12.30;99.90
32536;DHT22;18974;50.838;4.636;2023-11-19T06:31:46;12.30;99.90
32536;DHT22;18974;50.838;4.636;2023-11-19T06:34:14;12.20;99.90
32536;DHT22;18974;50.838;4.636;2023-11-19T06:36:40;12.20;99.90
32536;DHT22;18974;50.838;4.636;2023-11-19T06:39:06;12.20;99.90
32536;DHT22;18974;50.838;4.636;2023-11-19T06:41:32;12.20;99.90
32536;DHT22;18974;50.838;4.636;2023-11-19T06:43:57;12.30;99.90
32536;DHT22;18974;50.838;4.636;2023-11-19T06:46:23;12.10;99.90
32536;DHT22;18974;50.838;4.636;2023-11-19T06:48:49;12.10;99.90
32536;DHT22;18974;50.838;4.636;2023-11-19T06:51:15;12.10;99.90
32536;DHT22;18974;50.838;4.636;2023-11-19T06:53:42;12.00;99.90
32536;DHT22;18974;50.838;4.636;2023-11-19T06:56:39;12.00;99.90
32536;DHT22;18974;50.838;4.636;2023-11-19T06:59:04;11.90;99.90
32536;DHT22;18974;50.838;4.636;2023-11-19T07:01:35;11.90;99.90
32536;DHT22;18974;50.838;4.636;2023-11-19T07:04:01;12.00;99.90
32536;DHT22;18974;50.838;4.636;2023-11-19T07:06:33;12.00;99.90
32536;DHT22;18974;50.838;4.636;2023-11-19T07:09:00;12.00;99.90
32536;DHT22;18974;50.838;4.636;2023-11-19T07:11:28;12.00;99.90
32536;DHT22;18974;50.838;4.636;2023-11-19T07:13:54;11.90;99.90
32536;DHT22;18974;50.838;4.636;2023-11-19T07:16:20;11.90;99.90
32536;DHT22;18974;50.838;4.636;2023-11-19T07:18:48;11.90;99.90
32536;DHT22;18974;50.838;4.636;2023-11-19T07:21:15;11.90;99.90
32536;DHT22;18974;50.838;4.636;2023-11-19T07:23:41;11.90;99.90
32536;DHT22;18974;50.838;4.636;2023-11-19T07:26:07;11.90;99.90
32536;DHT22;18974;50.838;4.636;2023-11-19T07:28:36;12.00;99.90
32536;DHT22;18974;50.838;4.636;2023-11-19T07:31:02;12.00;99.90
32536;DHT22;18974;50.838;4.636;2023-11-19T07:33:27;12.10;99.90
32536;DHT22;18974;50.838;4.636;2023-11-19T07:35:53;12.20;99.90
32536;DHT22;18974;50.838;4.636;2023-11-19T07:38:19;12.20;99.90
32536;DHT22;18974;50.838;4.636;2023-11-19T07:40:44;12.20;99.90
32536;DHT22;18974;50.838;4.636;2023-11-19T07:43:10;12.20;99.90
32536;DHT22;18974;50.838;4.636;2023-11-19T07:45:36;12.30;99.90
32536;DHT22;18974;50.838;4.636;2023-11-19T07:48:02;12.30;99.90
32536;DHT22;18974;50.838;4.636;2023-11-19T07:50:27;12.40;99.90
32536;DHT22;18974;50.838;4.636;2023-11-19T07:52:53;12.30;99.90
32536;DHT22;18974;50.838;4.636;2023-11-19T07:55:19;12.40;99.90
32536;DHT22;18974;50.838;4.636;2023-11-19T07:57:44;12.40;99.90
32536;DHT22;18974;50.838;4.636;2023-11-19T08:00:11;12.50;99.90
32536;DHT22;18974;50.838;4.636;2023-11-19T08:02:39;12.50;99.90
32536;DHT22;18974;50.838;4.636;2023-11-19T08:33:19;11.80;99.90
32536;DHT22;18974;50.838;4.636;2023-11-19T08:35:48;11.90;99.90
32536;DHT22;18974;50.838;4.636;2023-11-19T08:38:13;12.00;99.90
32536;DHT22;18974;50.838;4.636;2023-11-19T08:40:39;12.20;99.90
32536;DHT22;18974;50.838;4.636;2023-11-19T08:43:05;12.30;99.90
32536;DHT22;18974;50.838;4.636;2023-11-19T08:45:31;12.50;99.90
32536;DHT22;18974;50.838;4.636;2023-11-19T08:47:57;12.70;99.90
32536;DHT22;18974;50.838;4.636;2023-11-19T08:50:25;12.80;99.90
32536;DHT22;18974;50.838;4.636;2023-11-19T08:52:50;13.00;99.90
32536;DHT22;18974;50.838;4.636;2023-11-19T08:55:16;13.20;99.90
32536;DHT22;18974;50.838;4.636;2023-11-19T08:57:42;13.30;99.90
32536;DHT22;18974;50.838;4.636;2023-11-19T09:00:07;13.30;99.90
32536;DHT22;18974;50.838;4.636;2023-11-19T09:02:37;13.30;99.90
32536;DHT22;18974;50.838;4.636;2023-11-19T09:05:04;13.30;99.90
32536;DHT22;18974;50.838;4.636;2023-11-19T09:07:29;13.30;99.90
32536;DHT22;18974;50.838;4.636;2023-11-19T09:09:55;13.40;99.90
32536;DHT22;18974;50.838;4.636;2023-11-19T09:12:20;13.40;99.90
32536;DHT22;18974;50.838;4.636;2023-11-19T09:14:46;13.40;99.90
32536;DHT22;18974;50.838;4.636;2023-11-19T09:17:12;13.30;99.90
32536;DHT22;18974;50.838;4.636;2023-11-19T09:19:37;13.40;99.90
32536;DHT22;18974;50.838;4.636;2023-11-19T09:22:03;13.50;99.90
32536;DHT22;18974;50.838;4.636;2023-11-19T09:24:29;13.60;99.90
32536;DHT22;18974;50.838;4.636;2023-11-19T09:26:55;13.60;99.90
32536;DHT22;18974;50.838;4.636;2023-11-19T09:29:25;13.60;99.90
32536;DHT22;18974;50.838;4.636;2023-11-19T09:31:51;13.60;99.90
32536;DHT22;18974;50.838;4.636;2023-11-19T09:34:17;13.60;99.90
32536;DHT22;18974;50.838;4.636;2023-11-19T09:36:42;13.70;99.90
32536;DHT22;18974;50.838;4.636;2023-11-19T09:39:13;13.80;99.90
32536;DHT22;18974;50.838;4.636;2023-11-19T09:41:43;13.60;99.90
32536;DHT22;18974;50.838;4.636;2023-11-19T09:44:10;13.70;99.90
32536;DHT22;18974;50.838;4.636;2023-11-19T09:46:39;13.70;99.90
32536;DHT22;18974;50.838;4.636;2023-11-19T09:49:08;13.80;99.90
32536;DHT22;18974;50.838;4.636;2023-11-19T09:51:35;13.70;99.90
32536;DHT22;18974;50.838;4.636;2023-11-19T09:54:01;13.80;99.90
32536;DHT22;18974;50.838;4.636;2023-11-19T09:56:29;13.90;99.90
32536;DHT22;18974;50.838;4.636;2023-11-19T09:58:55;13.90;99.90
32536;DHT22;18974;50.838;4.636;2023-11-19T10:01:21;13.90;99.90
32536;DHT22;18974;50.838;4.636;2023-11-19T10:03:47;13.90;99.90
32536;DHT22;18974;50.838;4.636;2023-11-19T10:06:15;14.00;99.90
32536;DHT22;18974;50.838;4.636;2023-11-19T10:08:42;14.20;99.90
32536;DHT22;18974;50.838;4.636;2023-11-19T10:11:08;14.40;99.90
32536;DHT22;18974;50.838;4.636;2023-11-19T10:13:37;14.50;99.90
32536;DHT22;18974;50.838;4.636;2023-11-19T10:16:17;14.60;99.90
32536;DHT22;18974;50.838;4.636;2023-11-19T10:18:46;14.50;99.90
32536;DHT22;18974;50.838;4.636;2023-11-19T10:21:13;14.40;99.90
32536;DHT22;18974;50.838;4.636;2023-11-19T10:23:53;14.40;99.90
32536;DHT22;18974;50.838;4.636;2023-11-19T10:26:20;14.40;99.90
32536;DHT22;18974;50.838;4.636;2023-11-19T10:28:47;14.40;99.90
32536;DHT22;18974;50.838;4.636;2023-11-19T10:31:17;14.40;99.90
32536;DHT22;18974;50.838;4.636;2023-11-19T10:33:43;14.40;99.90
32536;DHT22;18974;50.838;4.636;2023-11-19T10:36:11;14.60;99.90
32536;DHT22;18974;50.838;4.636;2023-11-19T10:38:38;14.60;99.90
32536;DHT22;18974;50.838;4.636;2023-11-19T10:41:04;14.60;99.90
32536;DHT22;18974;50.838;4.636;2023-11-19T10:43:31;14.50;99.90
32536;DHT22;18974;50.838;4.636;2023-11-19T10:46:13;14.70;99.90
32536;DHT22;18974;50.838;4.636;2023-11-19T10:48:39;14.90;99.90
32536;DHT22;18974;50.838;4.636;2023-11-19T10:51:07;15.10;99.90
32536;DHT22;18974;50.838;4.636;2023-11-19T10:53:38;15.10;99.90
32536;DHT22;18974;50.838;4.636;2023-11-19T10:56:10;15.30;99.90
32536;DHT22;18974;50.838;4.636;2023-11-19T10:58:37;15.40;99.90
32536;DHT22;18974;50.838;4.636;2023-11-19T11:01:20;15.40;99.90
32536;DHT22;18974;50.838;4.636;2023-11-19T11:03:51;15.40;99.90
32536;DHT22;18974;50.838;4.636;2023-11-19T11:06:18;15.30;99.90
32536;DHT22;18974;50.838;4.636;2023-11-19T11:08:46;15.20;99.90
32536;DHT22;18974;50.838;4.636;2023-11-19T11:11:14;15.00;99.90
32536;DHT22;18974;50.838;4.636;2023-11-19T11:13:42;15.10;99.90
32536;DHT22;18974;50.838;4.636;2023-11-19T11:16:09;15.30;99.90
32536;DHT22;18974;50.838;4.636;2023-11-19T11:18:36;15.20;99.90
32536;DHT22;18974;50.838;4.636;2023-11-19T11:21:07;15.10;99.90
32536;DHT22;18974;50.838;4.636;2023-11-19T11:28:56;15.50;99.90
32536;DHT22;18974;50.838;4.636;2023-11-19T11:34:46;15.00;99.90
32536;DHT22;18974;50.838;4.636;2023-11-19T11:37:19;15.10;99.90
32536;DHT22;18974;50.838;4.636;2023-11-19T11:39:47;15.10;99.90
32536;DHT22;18974;50.838;4.636;2023-11-19T11:45:00;15.10;99.90
32536;DHT22;18974;50.838;4.636;2023-11-19T11:47:33;15.10;99.90
32536;DHT22;18974;50.838;4.636;2023-11-19T11:50:16;15.30;99.90
32536;DHT22;18974;50.838;4.636;2023-11-19T11:57:53;15.50;99.90
32536;DHT22;18974;50.838;4.636;2023-11-19T12:02:52;15.80;99.90
32536;DHT22;18974;50.838;4.636;2023-11-19T12:05:20;15.70;99.90
32536;DHT22;18974;50.838;4.636;2023-11-19T12:07:55;15.60;99.90
32536;DHT22;18974;50.838;4.636;2023-11-19T12:10:21;15.70;99.90
32536;DHT22;18974;50.838;4.636;2023-11-19T12:12:47;15.70;99.90
32536;DHT22;18974;50.838;4.636;2023-11-19T12:15:13;15.80;99.90
32536;DHT22;18974;50.838;4.636;2023-11-19T12:17:47;16.10;99.90
32536;DHT22;18974;50.838;4.636;2023-11-19T12:20:15;16.00;99.90
32536;DHT22;18974;50.838;4.636;2023-11-19T12:22:43;15.80;99.90
32536;DHT22;18974;50.838;4.636;2023-11-19T12:25:10;15.70;99.90
32536;DHT22;18974;50.838;4.636;2023-11-19T12:27:39;15.50;99.90
32536;DHT22;18974;50.838;4.636;2023-11-19T12:30:06;15.30;99.90
32536;DHT22;18974;50.838;4.636;2023-11-19T12:32:58;15.20;99.90
32536;DHT22;18974;50.838;4.636;2023-11-19T12:35:24;15.20;99.90
32536;DHT22;18974;50.838;4.636;2023-11-19T12:37:51;15.10;99.90
32536;DHT22;18974;50.838;4.636;2023-11-19T12:42:50;14.90;99.90
32536;DHT22;18974;50.838;4.636;2023-11-19T12:45:17;14.70;99.90
32536;DHT22;18974;50.838;4.636;2023-11-19T12:47:44;14.60;99.90
32536;DHT22;18974;50.838;4.636;2023-11-19T12:50:12;14.50;99.90
32536;DHT22;18974;50.838;4.636;2023-11-19T12:52:38;14.50;99.90
32536;DHT22;18974;50.838;4.636;2023-11-19T12:55:26;14.50;99.90
32536;DHT22;18974;50.838;4.636;2023-11-19T12:57:52;14.50;99.90
32536;DHT22;18974;50.838;4.636;2023-11-19T13:00:21;14.60;99.90
32536;DHT22;18974;50.838;4.636;2023-11-19T13:02:52;14.90;99.90
32536;DHT22;18974;50.838;4.636;2023-11-19T13:05:28;15.20;99.90
32536;DHT22;18974;50.838;4.636;2023-11-19T13:08:04;15.30;99.90
32536;DHT22;18974;50.838;4.636;2023-11-19T13:10:31;15.50;99.90
32536;DHT22;18974;50.838;4.636;2023-11-19T13:13:05;15.50;99.90
32536;DHT22;18974;50.838;4.636;2023-11-19T13:15:32;15.60;99.90
32536;DHT22;18974;50.838;4.636;2023-11-19T13:17:59;15.60;99.90
32536;DHT22;18974;50.838;4.636;2023-11-19T13:20:25;15.40;99.90
32536;DHT22;18974;50.838;4.636;2023-11-19T13:22:58;15.20;99.90
32536;DHT22;18974;50.838;4.636;2023-11-19T13:25:28;15.00;99.90
32536;DHT22;18974;50.838;4.636;2023-11-19T13:27:55;14.70;99.90
32536;DHT22;18974;50.838;4.636;2023-11-19T13:30:21;14.70;99.90
32536;DHT22;18974;50.838;4.636;2023-11-19T13:32:50;14.70;99.90
32536;DHT22;18974;50.838;4.636;2023-11-19T13:35:17;14.70;99.90
32536;DHT22;18974;50.838;4.636;2023-11-19T13:37:43;14.60;99.90
32536;DHT22;18974;50.838;4.636;2023-11-19T13:40:10;14.70;99.90
32536;DHT22;18974;50.838;4.636;2023-11-19T13:42:42;14.60;99.90
32536;DHT22;18974;50.838;4.636;2023-11-19T13:45:12;14.60;99.90
32536;DHT22;18974;50.838;4.636;2023-11-19T13:50:09;14.50;99.90
32536;DHT22;18974;50.838;4.636;2023-11-19T13:52:36;14.40;99.90
32536;DHT22;18974;50.838;4.636;2023-11-19T13:55:04;14.50;99.90
32536;DHT22;18974;50.838;4.636;2023-11-19T13:57:31;14.40;99.90
32536;DHT22;18974;50.838;4.636;2023-11-19T13:59:57;14.30;99.90
32536;DHT22;18974;50.838;4.636;2023-11-19T14:02:23;14.30;99.90
32536;DHT22;18974;50.838;4.636;2023-11-19T14:04:48;14.30;99.90
32536;DHT22;18974;50.838;4.636;2023-11-19T14:07:14;14.20;99.90
32536;DHT22;18974;50.838;4.636;2023-11-19T14:09:42;14.10;99.90
32536;DHT22;18974;50.838;4.636;2023-11-19T14:12:08;14.10;99.90
32536;DHT22;18974;50.838;4.636;2023-11-19T14:14:35;14.00;99.90
32536;DHT22;18974;50.838;4.636;2023-11-19T14:17:02;14.00;99.90
32536;DHT22;18974;50.838;4.636;2023-11-19T14:19:28;14.10;99.90
32536;DHT22;18974;50.838;4.636;2023-11-19T14:21:54;14.10;99.90
32536;DHT22;18974;50.838;4.636;2023-11-19T14:24:20;14.10;99.90
32536;DHT22;18974;50.838;4.636;2023-11-19T14:26:46;14.00;99.90
32536;DHT22;18974;50.838;4.636;2023-11-19T14:29:12;14.00;99.90
32536;DHT22;18974;50.838;4.636;2023-11-19T14:31:38;14.00;99.90
32536;DHT22;18974;50.838;4.636;2023-11-19T14:34:05;14.00;99.90
32536;DHT22;18974;50.838;4.636;2023-11-19T14:36:30;14.10;99.90
32536;DHT22;18974;50.838;4.636;2023-11-19T14:38:56;14.10;99.90
32536;DHT22;18974;50.838;4.636;2023-11-19T14:41:24;14.00;99.90
32536;DHT22;18974;50.838;4.636;2023-11-19T14:43:50;14.00;99.90
32536;DHT22;18974;50.838;4.636;2023-11-19T14:46:15;13.80;99.90
32536;DHT22;18974;50.838;4.636;2023-11-19T14:48:41;13.70;99.90
32536;DHT22;18974;50.838;4.636;2023-11-19T14:51:07;13.50;99.90
32536;DHT22;18974;50.838;4.636;2023-11-19T14:53:32;13.40;99.90
32536;DHT22;18974;50.838;4.636;2023-11-19T14:55:58;13.40;99.90
32536;DHT22;18974;50.838;4.636;2023-11-19T14:58:24;13.40;99.90
32536;DHT22;18974;50.838;4.636;2023-11-19T15:00:51;13.30;99.90
32536;DHT22;18974;50.838;4.636;2023-11-19T15:03:17;13.40;99.90
32536;DHT22;18974;50.838;4.636;2023-11-19T15:05:45;13.40;99.90
32536;DHT22;18974;50.838;4.636;2023-11-19T15:08:11;13.50;99.90
32536;DHT22;18974;50.838;4.636;2023-11-19T15:10:37;13.50;99.90
32536;DHT22;18974;50.838;4.636;2023-11-19T15:13:03;13.50;99.90
32536;DHT22;18974;50.838;4.636;2023-11-19T15:15:29;13.50;99.90
32536;DHT22;18974;50.838;4.636;2023-11-19T15:17:55;13.50;99.90
32536;DHT22;18974;50.838;4.636;2023-11-19T15:20:21;13.50;99.90
32536;DHT22;18974;50.838;4.636;2023-11-19T15:22:47;13.40;99.90
32536;DHT22;18974;50.838;4.636;2023-11-19T15:25:13;13.30;99.90
32536;DHT22;18974;50.838;4.636;2023-11-19T15:27:38;13.40;99.90
32536;DHT22;18974;50.838;4.636;2023-11-19T15:30:05;13.30;99.90
32536;DHT22;18974;50.838;4.636;2023-11-19T15:32:31;13.40;99.90
32536;DHT22;18974;50.838;4.636;2023-11-19T15:35:00;13.40;99.90
32536;DHT22;18974;50.838;4.636;2023-11-19T15:37:25;13.50;99.90
32536;DHT22;18974;50.838;4.636;2023-11-19T15:39:51;13.50;99.90
32536;DHT22;18974;50.838;4.636;2023-11-19T15:42:17;13.60;99.90
32536;DHT22;18974;50.838;4.636;2023-11-19T15:44:43;13.50;99.90
32536;DHT22;18974;50.838;4.636;2023-11-19T15:47:09;13.60;99.90
32536;DHT22;18974;50.838;4.636;2023-11-19T15:49:35;13.60;99.90
32536;DHT22;18974;50.838;4.636;2023-11-19T15:52:02;13.60;99.90
32536;DHT22;18974;50.838;4.636;2023-11-19T15:54:28;13.50;99.90
32536;DHT22;18974;50.838;4.636;2023-11-19T15:56:53;13.60;99.90
32536;DHT22;18974;50.838;4.636;2023-11-19T15:59:19;13.60;99.90
32536;DHT22;18974;50.838;4.636;2023-11-19T16:01:46;13.70;99.90
32536;DHT22;18974;50.838;4.636;2023-11-19T16:04:11;13.70;99.90
32536;DHT22;18974;50.838;4.636;2023-11-19T16:06:37;13.70;99.90
32536;DHT22;18974;50.838;4.636;2023-11-19T16:09:03;13.70;99.90
32536;DHT22;18974;50.838;4.636;2023-11-19T16:11:29;13.70;99.90
32536;DHT22;18974;50.838;4.636;2023-11-19T16:13:54;13.50;99.90
32536;DHT22;18974;50.838;4.636;2023-11-19T16:16:20;13.40;99.90
32536;DHT22;18974;50.838;4.636;2023-11-19T16:18:46;13.30;99.90
32536;DHT22;18974;50.838;4.636;2023-11-19T16:21:12;13.30;99.90
32536;DHT22;18974;50.838;4.636;2023-11-19T16:23:38;13.30;99.90
32536;DHT22;18974;50.838;4.636;2023-11-19T16:26:03;13.30;99.90
32536;DHT22;18974;50.838;4.636;2023-11-19T16:28:30;13.30;99.90
32536;DHT22;18974;50.838;4.636;2023-11-19T16:30:56;13.20;99.90
32536;DHT22;18974;50.838;4.636;2023-11-19T16:33:21;13.30;99.90
32536;DHT22;18974;50.838;4.636;2023-11-19T16:35:47;13.30;99.90
32536;DHT22;18974;50.838;4.636;2023-11-19T16:38:13;13.20;99.90
32536;DHT22;18974;50.838;4.636;2023-11-19T16:40:38;13.10;99.90
32536;DHT22;18974;50.838;4.636;2023-11-19T16:43:08;13.10;99.90
32536;DHT22;18974;50.838;4.636;2023-11-19T16:45:34;13.00;99.90
32536;DHT22;18974;50.838;4.636;2023-11-19T16:47:59;13.00;99.90
32536;DHT22;18974;50.838;4.636;2023-11-19T16:50:27;13.00;99.90
32536;DHT22;18974;50.838;4.636;2023-11-19T16:52:53;12.80;99.90
32536;DHT22;18974;50.838;4.636;2023-11-19T16:55:19;12.70;99.90
32536;DHT22;18974;50.838;4.636;2023-11-19T16:57:45;12.70;99.90
32536;DHT22;18974;50.838;4.636;2023-11-19T17:00:11;12.60;99.90
32536;DHT22;18974;50.838;4.636;2023-11-19T17:02:39;12.50;99.90
32536;DHT22;18974;50.838;4.636;2023-11-19T17:05:10;12.50;99.90
32536;DHT22;18974;50.838;4.636;2023-11-19T17:07:36;12.40;99.90
32536;DHT22;18974;50.838;4.636;2023-11-19T17:10:01;12.50;99.90
32536;DHT22;18974;50.838;4.636;2023-11-19T17:12:31;12.50;99.90
32536;DHT22;18974;50.838;4.636;2023-11-19T17:14:57;12.60;99.90
32536;DHT22;18974;50.838;4.636;2023-11-19T17:17:36;12.60;99.90
32536;DHT22;18974;50.838;4.636;2023-11-19T17:20:06;12.70;99.90
32536;DHT22;18974;50.838;4.636;2023-11-19T17:22:33;12.70;99.90
32536;DHT22;18974;50.838;4.636;2023-11-19T17:25:00;12.70;99.90
32536;DHT22;18974;50.838;4.636;2023-11-19T17:27:26;12.60;99.90
32536;DHT22;18974;50.838;4.636;2023-11-19T17:29:56;12.60;99.90
32536;DHT22;18974;50.838;4.636;2023-11-19T17:32:22;12.60;99.90
32536;DHT22;18974;50.838;4.636;2023-11-19T17:34:48;12.50;99.90
32536;DHT22;18974;50.838;4.636;2023-11-19T17:37:14;12.50;99.90
32536;DHT22;18974;50.838;4.636;2023-11-19T17:39:40;12.50;99.90
32536;DHT22;18974;50.838;4.636;2023-11-19T17:42:07;12.50;99.90
32536;DHT22;18974;50.838;4.636;2023-11-19T17:44:33;12.60;99.90
32536;DHT22;18974;50.838;4.636;2023-11-19T17:47:03;12.60;99.90
32536;DHT22;18974;50.838;4.636;2023-11-19T17:49:29;12.60;99.90
32536;DHT22;18974;50.838;4.636;2023-11-19T17:51:54;12.60;99.90
32536;DHT22;18974;50.838;4.636;2023-11-19T17:54:20;12.50;99.90
32536;DHT22;18974;50.838;4.636;2023-11-19T17:56:46;12.50;99.90
32536;DHT22;18974;50.838;4.636;2023-11-19T17:59:12;12.40;99.90
32536;DHT22;18974;50.838;4.636;2023-11-19T18:01:41;12.40;99.90
32536;DHT22;18974;50.838;4.636;2023-11-19T18:04:06;12.40;99.90
32536;DHT22;18974;50.838;4.636;2023-11-19T18:06:32;12.40;99.90
32536;DHT22;18974;50.838;4.636;2023-11-19T18:09:00;12.30;99.90
32536;DHT22;18974;50.838;4.636;2023-11-19T18:11:27;12.40;99.90
32536;DHT22;18974;50.838;4.636;2023-11-19T18:13:52;12.40;99.90
32536;DHT22;18974;50.838;4.636;2023-11-19T18:16:20;12.40;99.90
32536;DHT22;18974;50.838;4.636;2023-11-19T18:18:45;12.40;99.90
32536;DHT22;18974;50.838;4.636;2023-11-19T18:21:12;12.40;99.90
32536;DHT22;18974;50.838;4.636;2023-11-19T18:23:38;12.40;99.90
32536;DHT22;18974;50.838;4.636;2023-11-19T18:26:04;12.50;99.90
32536;DHT22;18974;50.838;4.636;2023-11-19T18:28:31;12.40;99.90
32536;DHT22;18974;50.838;4.636;2023-11-19T18:30:57;12.50;99.90
32536;DHT22;18974;50.838;4.636;2023-11-19T18:33:23;12.60;99.90
32536;DHT22;18974;50.838;4.636;2023-11-19T18:35:49;12.50;99.90
32536;DHT22;18974;50.838;4.636;2023-11-19T18:38:14;12.40;99.90
32536;DHT22;18974;50.838;4.636;2023-11-19T18:40:40;12.50;99.90
32536;DHT22;18974;50.838;4.636;2023-11-19T18:43:06;12.50;99.90
32536;DHT22;18974;50.838;4.636;2023-11-19T18:45:31;12.60;99.90
32536;DHT22;18974;50.838;4.636;2023-11-19T18:47:57;12.60;99.90
32536;DHT22;18974;50.838;4.636;2023-11-19T18:50:24;12.60;99.90
32536;DHT22;18974;50.838;4.636;2023-11-19T18:52:50;12.50;99.90
32536;DHT22;18974;50.838;4.636;2023-11-19T18:55:16;12.40;99.90
32536;DHT22;18974;50.838;4.636;2023-11-19T18:57:41;12.40;99.90
32536;DHT22;18974;50.838;4.636;2023-11-19T19:00:07;12.40;99.90
32536;DHT22;18974;50.838;4.636;2023-11-19T19:02:36;12.30;99.90
32536;DHT22;18974;50.838;4.636;2023-11-19T19:05:04;12.30;99.90
32536;DHT22;18974;50.838;4.636;2023-11-19T19:07:31;12.20;99.90
32536;DHT22;18974;50.838;4.636;2023-11-19T19:09:56;12.20;99.90
32536;DHT22;18974;50.838;4.636;2023-11-19T19:12:23;12.30;99.90
32536;DHT22;18974;50.838;4.636;2023-11-19T19:14:49;12.30;99.90
32536;DHT22;18974;50.838;4.636;2023-11-19T19:17:15;12.40;99.90
32536;DHT22;18974;50.838;4.636;2023-11-19T19:19:41;12.30;99.90
32536;DHT22;18974;50.838;4.636;2023-11-19T19:22:07;12.20;99.90
32536;DHT22;18974;50.838;4.636;2023-11-19T19:24:32;12.30;99.90
32536;DHT22;18974;50.838;4.636;2023-11-19T19:26:58;12.30;99.90
32536;DHT22;18974;50.838;4.636;2023-11-19T19:29:23;12.30;99.90
32536;DHT22;18974;50.838;4.636;2023-11-19T19:31:50;12.30;99.90
32536;DHT22;18974;50.838;4.636;2023-11-19T19:34:15;12.40;99.90
32536;DHT22;18974;50.838;4.636;2023-11-19T19:36:41;12.50;99.90
32536;DHT22;18974;50.838;4.636;2023-11-19T19:39:06;12.50;99.90
32536;DHT22;18974;50.838;4.636;2023-11-19T19:41:43;12.50;99.90
32536;DHT22;18974;50.838;4.636;2023-11-19T19:44:09;12.40;99.90
32536;DHT22;18974;50.838;4.636;2023-11-19T19:46:37;12.40;99.90
32536;DHT22;18974;50.838;4.636;2023-11-19T19:49:03;12.50;99.90
32536;DHT22;18974;50.838;4.636;2023-11-19T19:51:30;12.50;99.90
32536;DHT22;18974;50.838;4.636;2023-11-19T19:53:56;12.60;99.90
32536;DHT22;18974;50.838;4.636;2023-11-19T19:56:22;12.60;99.90
32536;DHT22;18974;50.838;4.636;2023-11-19T19:58:47;12.60;99.90
32536;DHT22;18974;50.838;4.636;2023-11-19T20:01:13;12.60;99.90
32536;DHT22;18974;50.838;4.636;2023-11-19T20:03:39;12.60;99.90
32536;DHT22;18974;50.838;4.636;2023-11-19T20:06:05;12.60;99.90
32536;DHT22;18974;50.838;4.636;2023-11-19T20:08:37;12.50;99.90
32536;DHT22;18974;50.838;4.636;2023-11-19T20:11:03;12.50;99.90
32536;DHT22;18974;50.838;4.636;2023-11-19T20:13:28;12.40;99.90
32536;DHT22;18974;50.838;4.636;2023-11-19T20:15:54;12.50;99.90
32536;DHT22;18974;50.838;4.636;2023-11-19T20:18:20;12.60;99.90
32536;DHT22;18974;50.838;4.636;2023-11-19T20:20:46;12.60;99.90
32536;DHT22;18974;50.838;4.636;2023-11-19T20:23:13;12.60;99.90
32536;DHT22;18974;50.838;4.636;2023-11-19T20:25:38;12.70;99.90
32536;DHT22;18974;50.838;4.636;2023-11-19T20:28:04;12.60;99.90
32536;DHT22;18974;50.838;4.636;2023-11-19T20:30:30;12.60;99.90
32536;DHT22;18974;50.838;4.636;2023-11-19T20:32:56;12.70;99.90
32536;DHT22;18974;50.838;4.636;2023-11-19T20:35:22;12.70;99.90
32536;DHT22;18974;50.838;4.636;2023-11-19T20:37:47;12.70;99.90
32536;DHT22;18974;50.838;4.636;2023-11-19T20:40:13;12.70;99.90
32536;DHT22;18974;50.838;4.636;2023-11-19T20:42:39;12.70;99.90
32536;DHT22;18974;50.838;4.636;2023-11-19T20:45:08;12.70;99.90
32536;DHT22;18974;50.838;4.636;2023-11-19T20:47:38;12.70;99.90